Etusivu
METAR-TAF:

METAR-TAF

Lentoasemat :

Tri-Township Airport

Savanna, Illinois, Yhdysvallat

Leveyspiiri: 42-02-45N, Pituuspiiri: 090-06-28W, korkeus merenpinnasta: 188 m

Tämänhetkinen sää

Tämä raportti tehtiin 18 minuuttia sitten, kello 20.35 UTC
Tuuli 14 kn pohjoisesta puuskistuen 21 kn:hen
Lämpötila 0°C
Kosteus 47%
Ilmanpaine 1021 hPa
Näkyvyys: 16.1 km
Pilvistä 3900 ft:n korkeudessa

METAR: KSFY 262035Z AUTO 36014G21KT 10SM OVC039 00/M10 A3014 RMK AO2

Aika: 14:53 (20:53 UTC)


TAF: puuttuu

Säähavainnot ja -ennusteet yli 4000 lentoasemalta (METAR- ja TAF-raportit).

Käytössä olevat sääasemat on merkitty karttaan keltaisilla ja punaisilla pisteillä.

Aseta hiiri pisteen päälle nähdäksesi sääaseman nimen.

Klikkaa sitten nähdäksesi säähavainnot ja -ennusteet.

Kartan vaihtaminen: klikkaa mustalla rastilla varustettuja vihreitä pisteitä, niin voit zoomata sisään; viivalla varustettua vihreää pistettä, niin voit zoomata ulos tai vihreitä nuolia, niin pääset viereisille kartoille.


METAR-TAF: